Time,TemperatureF,DewpointF,PressureIn,WindDirection,WindDirectionDegrees,WindSpeedMPH,WindSpeedGustMPH,Humidity,HourlyPrecipIn,Conditions,Clouds,dailyrainin,SoftwareType,DateUTC
2013-02-22 00:08:00,-999.0,-99.9,29.99,North,-999,-999.0,-999.0,-999,-99.99,,,0.00,weatherlink.com 1.10,2013-02-22 05:08:00,
2013-02-22 00:23:00,-999.0,-99.9,29.99,North,-999,-999.0,-999.0,-999,-99.99,,,0.00,weatherlink.com 1.10,2013-02-22 05:23:00,
2013-02-22 00:38:00,-999.0,-99.9,29.98,North,-999,-999.0,-999.0,-999,-99.99,,,0.00,weatherlink.com 1.10,2013-02-22 05:38:00,
2013-02-22 00:53:00,-999.0,-99.9,29.98,North,-999,-999.0,-999.0,-999,-99.99,,,0.00,weatherlink.com 1.10,2013-02-22 05:53:00,
2013-02-22 01:08:00,-999.0,-99.9,29.98,North,-999,-999.0,-999.0,-999,-99.99,,,0.00,weatherlink.com 1.10,2013-02-22 06:08:00,
2013-02-22 01:23:00,-999.0,-99.9,29.97,North,-999,-999.0,-999.0,-999,-99.99,,,0.00,weatherlink.com 1.10,2013-02-22 06:23:00,
2013-02-22 01:38:00,-999.0,-99.9,29.98,North,-999,-999.0,-999.0,-999,-99.99,,,0.00,weatherlink.com 1.10,2013-02-22 06:38:00,
2013-02-22 01:53:00,-999.0,-99.9,29.98,North,-999,-999.0,-999.0,-999,-99.99,,,0.00,weatherlink.com 1.10,2013-02-22 06:53:00,
2013-02-22 02:08:00,-999.0,-99.9,29.97,North,-999,-999.0,-999.0,-999,-99.99,,,0.00,weatherlink.com 1.10,2013-02-22 07:08:00,
2013-02-22 02:23:00,-999.0,-99.9,29.97,North,-999,-999.0,-999.0,-999,-99.99,,,0.00,weatherlink.com 1.10,2013-02-22 07:23:00,
2013-02-22 02:38:00,-999.0,-99.9,29.97,North,-999,-999.0,-999.0,-999,-99.99,,,0.00,weatherlink.com 1.10,2013-02-22 07:38:00,
2013-02-22 02:53:00,-999.0,-99.9,29.96,North,-999,-999.0,-999.0,-999,-99.99,,,0.00,weatherlink.com 1.10,2013-02-22 07:53:00,
2013-02-22 03:08:00,-999.0,-99.9,29.96,North,-999,-999.0,-999.0,-999,-99.99,,,0.00,weatherlink.com 1.10,2013-02-22 08:08:00,
2013-02-22 03:23:00,-999.0,-99.9,29.96,North,-999,-999.0,-999.0,-999,-99.99,,,0.00,weatherlink.com 1.10,2013-02-22 08:23:00,
2013-02-22 03:38:00,-999.0,-99.9,29.97,North,-999,-999.0,-999.0,-999,-99.99,,,0.00,weatherlink.com 1.10,2013-02-22 08:38:00,
2013-02-22 03:53:00,-999.0,-99.9,29.97,North,-999,-999.0,-999.0,-999,-99.99,,,0.00,weatherlink.com 1.10,2013-02-22 08:53:00,
2013-02-22 04:08:00,-999.0,-99.9,29.98,North,-999,-999.0,-999.0,-999,-99.99,,,0.00,weatherlink.com 1.10,2013-02-22 09:08:00,
2013-02-22 04:23:00,-999.0,-99.9,29.98,North,-999,-999.0,-999.0,-999,-99.99,,,0.00,weatherlink.com 1.10,2013-02-22 09:23:00,
2013-02-22 04:38:00,-999.0,-99.9,29.98,North,-999,-999.0,-999.0,-999,-99.99,,,0.00,weatherlink.com 1.10,2013-02-22 09:38:00,
2013-02-22 04:53:00,-999.0,-99.9,29.98,North,-999,-999.0,-999.0,-999,-99.99,,,0.00,weatherlink.com 1.10,2013-02-22 09:53:00,
2013-02-22 05:08:00,-999.0,-99.9,29.98,North,-999,-999.0,-999.0,-999,-99.99,,,0.00,weatherlink.com 1.10,2013-02-22 10:08:00,
2013-02-22 05:23:00,-999.0,-99.9,29.98,North,-999,-999.0,-999.0,-999,-99.99,,,0.00,weatherlink.com 1.10,2013-02-22 10:23:00,
2013-02-22 05:38:00,-999.0,-99.9,29.98,North,-999,-999.0,-999.0,-999,-99.99,,,0.00,weatherlink.com 1.10,2013-02-22 10:38:00,
2013-02-22 05:53:00,-999.0,-99.9,29.99,North,-999,-999.0,-999.0,-999,-99.99,,,0.00,weatherlink.com 1.10,2013-02-22 10:53:00,
2013-02-22 06:08:00,-999.0,-99.9,29.99,North,-999,-999.0,-999.0,-999,-99.99,,,0.00,weatherlink.com 1.10,2013-02-22 11:08:00,
2013-02-22 06:23:00,-999.0,-99.9,29.99,North,-999,-999.0,-999.0,-999,-99.99,,,0.00,weatherlink.com 1.10,2013-02-22 11:23:00,
2013-02-22 06:38:00,-999.0,-99.9,30.00,North,-999,-999.0,-999.0,-999,-99.99,,,0.00,weatherlink.com 1.10,2013-02-22 11:38:00,
2013-02-22 06:53:00,-999.0,-99.9,30.00,North,-999,-999.0,-999.0,-999,-99.99,,,0.00,weatherlink.com 1.10,2013-02-22 11:53:00,
2013-02-22 07:08:00,-999.0,-99.9,30.00,North,-999,-999.0,-999.0,-999,-99.99,,,0.00,weatherlink.com 1.10,2013-02-22 12:08:00,
2013-02-22 07:23:00,-999.0,-99.9,30.01,North,-999,-999.0,-999.0,-999,-99.99,,,0.00,weatherlink.com 1.10,2013-02-22 12:23:00,
2013-02-22 07:38:00,-999.0,-99.9,30.02,SSE,164,3.0,-999.0,-999,-99.99,,,0.00,weatherlink.com 1.10,2013-02-22 12:38:00,
2013-02-22 07:53:00,67.3,66.0,30.02,SSE,165,5.0,-999.0,94,-99.99,,,0.00,weatherlink.com 1.10,2013-02-22 12:53:00,
2013-02-22 08:08:00,67.6,66.0,30.02,SSE,163,6.0,-999.0,94,-99.99,,,0.00,weatherlink.com 1.10,2013-02-22 13:08:00,
2013-02-22 08:23:00,68.0,66.0,30.02,South,169,5.0,-999.0,94,-99.99,,,0.00,weatherlink.com 1.10,2013-02-22 13:23:00,
2013-02-22 08:38:00,68.6,67.0,30.02,South,178,5.0,-999.0,93,-99.99,,,0.00,weatherlink.com 1.10,2013-02-22 13:38:00,
2013-02-22 08:53:00,69.2,67.0,30.02,South,173,4.0,-999.0,93,-99.99,,,0.00,weatherlink.com 1.10,2013-02-22 13:53:00,
2013-02-22 09:08:00,69.8,67.0,30.02,SE,140,1.0,-999.0,92,-99.99,,,0.00,weatherlink.com 1.10,2013-02-22 14:08:00,
2013-02-22 09:23:00,70.5,68.0,30.03,South,191,1.0,-999.0,91,-99.99,,,0.00,weatherlink.com 1.10,2013-02-22 14:23:00,
2013-02-22 09:38:00,71.2,68.0,30.03,South,183,3.0,-999.0,90,-99.99,,,0.00,weatherlink.com 1.10,2013-02-22 14:38:00,
2013-02-22 09:53:00,72.0,69.0,30.03,SSW,192,1.0,-999.0,89,-99.99,,,0.00,weatherlink.com 1.10,2013-02-22 14:53:00,
2013-02-22 10:08:00,72.6,69.0,30.03,SSE,150,6.0,-999.0,88,-99.99,,,0.00,weatherlink.com 1.10,2013-02-22 15:08:00,
2013-02-22 10:23:00,73.5,70.0,30.02,South,169,3.0,-999.0,87,-99.99,,,0.00,weatherlink.com 1.10,2013-02-22 15:23:00,
2013-02-22 10:38:00,74.4,70.0,30.02,South,173,3.0,-999.0,85,-99.99,,,0.00,weatherlink.com 1.10,2013-02-22 15:38:00,
2013-02-22 10:53:00,75.3,70.0,30.03,South,183,9.0,-999.0,82,-99.99,,,0.00,weatherlink.com 1.10,2013-02-22 15:53:00,
2013-02-22 11:08:00,75.3,70.0,30.02,SE,142,4.0,-999.0,82,-99.99,,,0.00,weatherlink.com 1.10,2013-02-22 16:08:00,
2013-02-22 11:23:00,75.6,70.0,30.02,SSW,206,6.0,-999.0,82,-99.99,,,0.00,weatherlink.com 1.10,2013-02-22 16:23:00,
2013-02-22 11:38:00,76.0,70.0,30.02,SSW,213,11.0,-999.0,81,-99.99,,,0.00,weatherlink.com 1.10,2013-02-22 16:38:00,
2013-02-22 11:53:00,76.0,70.0,30.02,SSW,213,2.0,-999.0,81,-99.99,,,0.00,weatherlink.com 1.10,2013-02-22 16:53:00,
2013-02-22 12:08:00,75.8,70.0,30.02,SW,214,4.0,-999.0,81,-99.99,,,0.00,weatherlink.com 1.10,2013-02-22 17:08:00,
2013-02-22 12:23:00,75.9,70.0,30.01,WSW,237,5.0,-999.0,82,-99.99,,,0.00,weatherlink.com 1.10,2013-02-22 17:23:00,
2013-02-22 12:38:00,75.6,70.0,30.01,SW,227,6.0,-999.0,83,-99.99,,,0.00,weatherlink.com 1.10,2013-02-22 17:38:00,
2013-02-22 12:53:00,75.5,70.0,30.00,South,182,10.0,-999.0,84,-99.99,,,0.00,weatherlink.com 1.10,2013-02-22 17:53:00,
2013-02-22 13:08:00,74.9,70.0,30.00,SSW,202,7.0,-999.0,84,-99.99,,,0.00,weatherlink.com 1.10,2013-02-22 18:08:00,
2013-02-22 13:23:00,74.4,70.0,30.00,SSW,207,6.0,-999.0,85,-99.99,,,0.00,weatherlink.com 1.10,2013-02-22 18:23:00,
2013-02-22 13:38:00,74.4,70.0,30.00,SSW,211,2.0,-999.0,86,-99.99,,,0.00,weatherlink.com 1.10,2013-02-22 18:38:00,
2013-02-22 13:53:00,74.4,70.0,29.99,SSW,200,9.0,-999.0,86,-99.99,,,0.00,weatherlink.com 1.10,2013-02-22 18:53:00,
2013-02-22 14:08:00,74.4,70.0,29.99,SSW,209,4.0,-999.0,86,-99.99,,,0.00,weatherlink.com 1.10,2013-02-22 19:08:00,
2013-02-22 14:23:00,74.3,70.0,29.98,SW,232,3.0,-999.0,87,-99.99,,,0.00,weatherlink.com 1.10,2013-02-22 19:23:00,
2013-02-22 14:38:00,74.2,70.0,29.97,SSW,205,5.0,-999.0,87,-99.99,,,0.00,weatherlink.com 1.10,2013-02-22 19:38:00,
2013-02-22 14:53:00,74.0,70.0,29.97,SSW,209,3.0,-999.0,88,-99.99,,,0.00,weatherlink.com 1.10,2013-02-22 19:53:00,
2013-02-22 15:08:00,74.0,70.0,29.97,SW,227,3.0,-999.0,88,-99.99,,,0.00,weatherlink.com 1.10,2013-02-22 20:08:00,
2013-02-22 15:23:00,73.9,70.0,29.97,SW,236,9.0,-999.0,87,-99.99,,,0.00,weatherlink.com 1.10,2013-02-22 20:23:00,
2013-02-22 15:38:00,73.5,70.0,29.97,SW,215,2.0,-999.0,88,-99.99,,,0.00,weatherlink.com 1.10,2013-02-22 20:38:00,
2013-02-22 15:53:00,73.7,70.0,29.97,SSW,206,3.0,-999.0,88,-99.99,,,0.00,weatherlink.com 1.10,2013-02-22 20:53:00,
2013-02-22 16:08:00,73.8,70.0,29.96,WSW,251,6.0,-999.0,87,-99.99,,,0.00,weatherlink.com 1.10,2013-02-22 21:08:00,
2013-02-22 16:23:00,73.3,70.0,29.96,SSW,198,3.0,-999.0,88,-99.99,,,0.00,weatherlink.com 1.10,2013-02-22 21:23:00,
2013-02-22 16:38:00,73.0,70.0,29.96,SSW,202,1.0,-999.0,89,-99.99,,,0.00,weatherlink.com 1.10,2013-02-22 21:38:00,
2013-02-22 16:53:00,72.8,70.0,29.97,SSW,208,1.0,-999.0,89,-99.99,,,0.00,weatherlink.com 1.10,2013-02-22 21:53:00,
2013-02-22 17:08:00,72.5,69.0,29.96,SW,222,3.0,-999.0,89,-99.99,,,0.00,weatherlink.com 1.10,2013-02-22 22:08:00,
2013-02-22 17:23:00,72.1,69.0,29.96,SW,221,4.0,-999.0,89,-99.99,,,0.00,weatherlink.com 1.10,2013-02-22 22:23:00,
2013-02-22 17:38:00,71.8,69.0,29.96,SW,229,1.0,-999.0,90,-99.99,,,0.00,weatherlink.com 1.10,2013-02-22 22:38:00,
2013-02-22 17:53:00,71.4,69.0,29.96,SSW,209,0.0,-999.0,91,-99.99,,,0.00,weatherlink.com 1.10,2013-02-22 22:53:00,
2013-02-22 18:08:00,71.2,69.0,29.97,SW,228,2.0,-999.0,91,-99.99,,,0.00,weatherlink.com 1.10,2013-02-22 23:08:00,
2013-02-22 18:23:00,71.0,68.0,29.97,SSW,212,5.0,-999.0,91,-99.99,,,0.00,weatherlink.com 1.10,2013-02-22 23:23:00,
2013-02-22 18:38:00,-999.0,-99.9,29.98,North,-999,-999.0,-999.0,-999,-99.99,,,0.00,weatherlink.com 1.10,2013-02-22 23:38:00,
2013-02-22 18:53:00,-999.0,-99.9,29.97,North,-999,-999.0,-999.0,-999,-99.99,,,0.00,weatherlink.com 1.10,2013-02-22 23:53:00,
2013-02-22 19:08:00,-999.0,-99.9,29.98,North,-999,-999.0,-999.0,-999,-99.99,,,0.00,weatherlink.com 1.10,2013-02-23 00:08:00,
2013-02-22 19:23:00,-999.0,-99.9,29.97,North,-999,-999.0,-999.0,-999,-99.99,,,0.00,weatherlink.com 1.10,2013-02-23 00:23:00,
2013-02-22 19:38:00,-999.0,-99.9,29.98,North,-999,-999.0,-999.0,-999,-99.99,,,0.00,weatherlink.com 1.10,2013-02-23 00:38:00,
2013-02-22 19:53:00,-999.0,-99.9,29.98,North,-999,-999.0,-999.0,-999,-99.99,,,0.00,weatherlink.com 1.10,2013-02-23 00:53:00,
2013-02-22 20:08:00,-999.0,-99.9,29.99,North,-999,-999.0,-999.0,-999,-99.99,,,0.00,weatherlink.com 1.10,2013-02-23 01:08:00,
2013-02-22 20:23:00,-999.0,-99.9,29.99,North,-999,-999.0,-999.0,-999,-99.99,,,0.00,weatherlink.com 1.10,2013-02-23 01:23:00,
2013-02-22 20:38:00,-999.0,-99.9,29.99,North,-999,-999.0,-999.0,-999,-99.99,,,0.00,weatherlink.com 1.10,2013-02-23 01:38:00,
2013-02-22 20:53:00,-999.0,-99.9,29.99,North,-999,-999.0,-999.0,-999,-99.99,,,0.00,weatherlink.com 1.10,2013-02-23 01:53:00,
2013-02-22 21:08:00,-999.0,-99.9,29.99,North,-999,-999.0,-999.0,-999,-99.99,,,0.00,weatherlink.com 1.10,2013-02-23 02:08:00,
2013-02-22 21:23:00,-999.0,-99.9,30.00,North,-999,-999.0,-999.0,-999,-99.99,,,0.00,weatherlink.com 1.10,2013-02-23 02:23:00,
2013-02-22 21:38:00,-999.0,-99.9,30.00,North,-999,-999.0,-999.0,-999,-99.99,,,0.00,weatherlink.com 1.10,2013-02-23 02:38:00,
2013-02-22 21:53:00,-999.0,-99.9,29.99,North,-999,-999.0,-999.0,-999,-99.99,,,0.00,weatherlink.com 1.10,2013-02-23 02:53:00,
2013-02-22 22:08:00,-999.0,-99.9,29.99,North,-999,-999.0,-999.0,-999,-99.99,,,0.00,weatherlink.com 1.10,2013-02-23 03:08:00,
2013-02-22 22:23:00,-999.0,-99.9,29.99,North,-999,-999.0,-999.0,-999,-99.99,,,0.00,weatherlink.com 1.10,2013-02-23 03:23:00,
2013-02-22 22:38:00,-999.0,-99.9,29.99,North,-999,-999.0,-999.0,-999,-99.99,,,0.00,weatherlink.com 1.10,2013-02-23 03:38:00,
2013-02-22 22:53:00,-999.0,-99.9,29.98,North,-999,-999.0,-999.0,-999,-99.99,,,0.00,weatherlink.com 1.10,2013-02-23 03:53:00,
2013-02-22 23:08:00,-999.0,-99.9,29.98,North,-999,-999.0,-999.0,-999,-99.99,,,0.00,weatherlink.com 1.10,2013-02-23 04:08:00,
2013-02-22 23:23:00,-999.0,-99.9,29.98,North,-999,-999.0,-999.0,-999,-99.99,,,0.00,weatherlink.com 1.10,2013-02-23 04:23:00,
2013-02-22 23:38:00,-999.0,-99.9,29.98,North,-999,-999.0,-999.0,-999,-99.99,,,0.00,weatherlink.com 1.10,2013-02-23 04:38:00,
2013-02-22 23:53:00,-999.0,-99.9,29.97,North,-999,-999.0,-999.0,-999,-99.99,,,0.00,weatherlink.com 1.10,2013-02-23 04:53:00,